Time;durP1;ratioP1;P1;durP2;ratioP2;P2;SDS_P1;SDS_P2;PMS_P1;PMS_P2;Temp;Humidity;BMP_temperature;BMP_pressure;BME280_temperature;BME280_humidity;BME280_pressure;Samples;Min_cycle;Max_cycle;Signal;HPM_P1;HPM_P2
2023/01/18 00:01:41;;;;;;;;;;;;;;;18.52;43.70;98685.41;5166219;27;19979;-44
2023/01/18 00:04:07;;;;;;;;;;;;;;;18.53;43.46;98684.25;5167433;27;20363;-45
2023/01/18 00:06:33;;;;;;;;;;;;;;;18.52;43.70;98684.56;5167397;27;20415;-46
2023/01/18 00:08:58;;;;;;;;;;;;;;;18.52;43.60;98681.81;5156605;27;19923;-45
2023/01/18 00:11:24;;;;;;;;;;;;;;;18.52;43.69;98687.31;5167869;27;19933;-44
2023/01/18 00:13:49;;;;;;;;;;;;;;;18.52;43.59;98690.06;5188050;27;20003;-43
2023/01/18 00:16:16;;;;;;;;;;;;;;;18.53;43.58;98688.97;5188539;27;19923;-44
2023/01/18 00:18:42;;;;;;;;;;;;;;;18.52;43.35;98692.84;5157025;27;19923;-43
2023/01/18 00:21:09;;;;;;;;;;;;;;;18.53;43.66;98697.22;5141808;27;19979;-44
2023/01/18 00:23:35;;;;;;;;;;;;;;;18.52;43.59;98696.44;5123879;28;20308;-44
2023/01/18 00:26:03;;;;;;;;;;;;;;;18.52;43.32;98696.44;5132239;28;20396;-43
2023/01/18 00:28:28;;;;;;;;;;;;;;;18.51;43.48;98694.78;5116974;27;19923;-44
2023/01/18 00:30:54;;;;;;;;;;;;;;;18.51;43.61;98699.50;5120330;28;19942;-43
2023/01/18 00:33:20;;;;;;;;;;;;;;;18.51;43.58;98697.53;5113853;28;20293;-44
2023/01/18 00:36:01;;;;;;;;;;;;;;;18.51;43.63;98697.53;5131982;28;19931;-46
2023/01/18 00:38:26;;;;;;;;;;;;;;;18.51;43.41;98703.06;5113490;28;20451;-44
2023/01/18 00:40:52;;;;;;;;;;;;;;;18.51;43.53;98703.06;5113861;28;20366;-43
2023/01/18 00:43:48;;;;;;;;;;;;;;;18.52;43.58;98706.63;5132503;28;19931;-45
2023/01/18 00:46:04;;;;;;;;;;;;;;;18.50;43.70;98712.47;5116859;28;20074;-46
2023/01/18 00:48:29;;;;;;;;;;;;;;;18.51;43.59;98711.31;5132371;27;19972;-45
2023/01/18 00:50:55;;;;;;;;;;;;;;;18.50;43.61;98704.19;5132148;27;19923;-44
2023/01/18 00:53:20;;;;;;;;;;;;;;;18.50;43.59;98704.19;5132020;28;19932;-44
2023/01/18 00:55:46;;;;;;;;;;;;;;;18.50;43.37;98703.41;5131729;28;20368;-44
2023/01/18 00:58:12;;;;;;;;;;;;;;;18.50;43.39;98701.44;5132776;27;20014;-43
2023/01/18 01:00:37;;;;;;;;;;;;;;;18.51;43.63;98702.25;5141940;27;20415;-44
2023/01/18 01:03:03;;;;;;;;;;;;;;;18.50;43.50;98701.44;5132293;28;19927;-45
2023/01/18 01:08:15;;;;;;;;;;;;;;;18.50;43.39;98706.16;5144673;27;19961;-44
2023/01/18 01:10:42;;;;;;;;;;;;;;;18.50;43.37;98701.44;5143426;27;20392;-45
2023/01/18 01:26:55;;;;;;;;;;;;;;;18.50;43.56;98708.91;5151098;27;19965;-44
2023/01/18 01:29:21;;;;;;;;;;;;;;;18.49;43.42;98715.56;5148986;27;19927;-43
2023/01/18 01:31:46;;;;;;;;;;;;;;;18.48;43.53;98716.69;5131470;28;19923;-43
2023/01/18 01:34:12;;;;;;;;;;;;;;;18.50;43.60;98719.94;5131476;28;19927;-45
2023/01/18 01:36:37;;;;;;;;;;;;;;;18.48;43.57;98731.28;5130302;27;20386;-44
2023/01/18 01:39:03;;;;;;;;;;;;;;;18.49;43.67;98735.66;5131140;27;19954;-44
2023/01/18 01:41:30;;;;;;;;;;;;;;;18.49;43.63;98732.09;5131185;27;19924;-45
2023/01/18 01:43:56;;;;;;;;;;;;;;;18.49;43.56;98734.84;5131501;28;19923;-45
2023/01/18 01:46:39;;;;;;;;;;;;;;;18.50;43.60;98741.97;5131565;28;19927;-44
2023/01/18 01:49:07;;;;;;;;;;;;;;;18.49;43.57;98745.88;5131433;27;19958;-44
2023/01/18 01:51:34;;;;;;;;;;;;;;;18.48;43.54;98752.50;5112775;28;19934;-44
2023/01/18 01:54:00;;;;;;;;;;;;;;;18.48;43.28;98750.59;5112214;28;20008;-43
2023/01/18 01:56:26;;;;;;;;;;;;;;;18.48;43.55;98750.59;5112840;28;19930;-47
2023/01/18 01:58:52;;;;;;;;;;;;;;;18.49;43.36;98754.16;5137435;27;19926;-43
2023/01/18 02:01:17;;;;;;;;;;;;;;;18.48;43.40;98744.25;5134854;27;19928;-46
2023/01/18 02:03:43;;;;;;;;;;;;;;;18.48;43.57;98756.09;5130660;28;20387;-44
2023/01/18 02:06:13;;;;;;;;;;;;;;;18.47;43.38;98748.94;5131185;28;19927;-44
2023/01/18 02:08:39;;;;;;;;;;;;;;;18.48;43.57;98747.00;5131074;27;20358;-44
2023/01/18 02:11:04;;;;;;;;;;;;;;;18.47;43.47;98754.47;5149162;27;19923;-43
2023/01/18 02:13:30;;;;;;;;;;;;;;;18.48;43.30;98750.59;5172177;27;19927;-43
2023/01/18 02:16:12;;;;;;;;;;;;;;;18.48;43.49;98758.03;5172512;27;19933;-44
2023/01/18 02:18:44;;;;;;;;;;;;;;;18.46;43.57;98750.09;5157218;27;20391;-43
2023/01/18 02:21:14;;;;;;;;;;;;;;;18.47;43.53;98754.47;5130702;27;20266;-45
2023/01/18 02:23:43;;;;;;;;;;;;;;;18.47;43.39;98757.22;5145510;27;19966;-43
2023/01/18 02:26:21;;;;;;;;;;;;;;;18.47;43.39;98754.47;5151450;27;19927;-43
2023/01/18 02:29:05;;;;;;;;;;;;;;;18.47;43.57;98759.97;5148978;27;19964;-43
2023/01/18 02:31:33;;;;;;;;;;;;;;;18.47;43.36;98764.69;5114649;28;19927;-44
2023/01/18 02:34:02;;;;;;;;;;;;;;;18.47;43.28;98759.97;5112092;28;19979;-43
2023/01/18 02:36:45;;;;;;;;;;;;;;;18.46;43.35;98761.13;5112150;28;19934;-44
2023/01/18 02:39:21;;;;;;;;;;;;;;;18.47;43.53;98767.44;5130247;27;19923;-47
2023/01/18 02:47:22;;;;;;;;;;;;;;;18.47;43.61;98778.47;5100077;28;20012;-45
2023/01/18 02:49:47;;;;;;;;;;;;;;;18.47;43.28;98781.22;5130465;27;19935;-45
2023/01/18 02:52:33;;;;;;;;;;;;;;;18.47;43.48;98778.47;5130425;28;19927;-45
2023/01/18 02:54:58;;;;;;;;;;;;;;;18.46;43.47;98776.84;5114532;28;20476;-44
2023/01/18 02:57:24;;;;;;;;;;;;;;;18.45;43.45;98778.78;5130266;28;19927;-44
2023/01/18 02:59:50;;;;;;;;;;;;;;;18.46;43.54;98776.84;5140348;27;19946;-44
2023/01/18 03:02:16;;;;;;;;;;;;;;;18.45;43.29;98778.00;5130246;28;19923;-43
2023/01/18 03:04:43;;;;;;;;;;;;;;;18.46;43.32;98785.13;5130047;28;19924;-43
2023/01/18 03:07:11;;;;;;;;;;;;;;;18.45;43.53;98783.50;5130281;28;19970;-44
2023/01/18 03:09:37;;;;;;;;;;;;;;;18.46;43.26;98794.19;5134648;27;20395;-47
2023/01/18 03:12:22;;;;;;;;;;;;;;;18.45;43.33;98789.81;5168319;27;19938;-43
2023/01/18 03:14:51;;;;;;;;;;;;;;;18.45;43.56;98789.00;5155788;27;19935;-43
2023/01/18 03:17:19;;;;;;;;;;;;;;;18.45;43.48;98795.34;5171789;27;19962;-44
2023/01/18 03:20:17;;;;;;;;;;;;;;;18.46;43.36;98798.91;5137954;27;19963;-44
2023/01/18 03:25:25;;;;;;;;;;;;;;;18.45;43.31;98795.34;5113837;27;20290;-44
2023/01/18 03:33:53;;;;;;;;;;;;;;;18.45;43.21;98794.53;5135000;27;19927;-45
2023/01/18 03:36:10;;;;;;;;;;;;;;;18.44;43.48;98798.44;5134784;27;19973;-44
2023/01/18 03:38:35;;;;;;;;;;;;;;;18.45;43.25;98798.09;5150298;27;19962;-45
2023/01/18 03:41:01;;;;;;;;;;;;;;;18.44;43.49;98792.91;5150217;27;19927;-43
2023/01/18 03:43:27;;;;;;;;;;;;;;;18.44;43.43;98802.00;5150478;27;19930;-44
2023/01/18 03:46:00;;;;;;;;;;;;;;;18.44;43.49;98803.94;5150432;27;19923;-43
2023/01/18 03:48:26;;;;;;;;;;;;;;;18.45;43.27;98811.06;5149989;27;19923;-44
2023/01/18 03:50:52;;;;;;;;;;;;;;;18.44;43.30;98812.22;5150279;27;20332;-44
2023/01/18 03:53:37;;;;;;;;;;;;;;;18.44;43.40;98814.97;5150091;27;19933;-44
2023/01/18 03:56:04;;;;;;;;;;;;;;;18.43;43.58;98818.84;5131313;27;20006;-44
2023/01/18 03:58:31;;;;;;;;;;;;;;;18.44;43.50;98815.78;5149778;27;20327;-44
2023/01/18 04:00:57;;;;;;;;;;;;;;;18.44;43.40;98820.47;5153262;27;19930;-43
2023/01/18 04:03:22;;;;;;;;;;;;;;;18.44;43.47;98820.47;5135078;27;19927;-44
2023/01/18 04:05:48;;;;;;;;;;;;;;;18.43;43.40;98822.41;5153737;27;19931;-45
2023/01/18 04:08:14;;;;;;;;;;;;;;;18.43;43.44;98819.63;5153576;27;19958;-46
2023/01/18 04:10:39;;;;;;;;;;;;;;;18.42;43.22;98817.22;5155401;27;19933;-45
2023/01/18 04:13:05;;;;;;;;;;;;;;;18.43;43.46;98827.91;5174409;27;19983;-44
2023/01/18 04:15:30;;;;;;;;;;;;;;;18.43;43.53;98835.38;5174641;27;20435;-44
2023/01/18 04:17:56;;;;;;;;;;;;;;;18.44;43.24;98835.06;5172238;27;19922;-46
2023/01/18 04:20:22;;;;;;;;;;;;;;;18.43;43.25;98832.63;5132572;27;20331;-43
2023/01/18 04:22:51;;;;;;;;;;;;;;;18.43;43.35;98838.94;5114311;28;19927;-44
2023/01/18 04:25:16;;;;;;;;;;;;;;;18.43;43.42;98838.94;5132358;28;19932;-43
2023/01/18 04:27:42;;;;;;;;;;;;;;;18.42;43.23;98834.56;5150895;27;19923;-43
2023/01/18 04:30:08;;;;;;;;;;;;;;;18.42;43.34;98836.50;5145018;27;20154;-45
2023/01/18 04:32:33;;;;;;;;;;;;;;;18.42;43.45;98844.78;5132488;28;19946;-44
2023/01/18 04:34:59;;;;;;;;;;;;;;;18.42;43.36;98842.03;5132628;28;19927;-44
2023/01/18 04:37:29;;;;;;;;;;;;;;;18.42;43.38;98855.81;5132605;28;19934;-43
2023/01/18 04:39:55;;;;;;;;;;;;;;;18.43;43.26;98851.91;5132354;27;20389;-44
2023/01/18 04:42:21;;;;;;;;;;;;;;;18.42;43.44;98855.81;5132503;28;19927;-43
2023/01/18 04:44:46;;;;;;;;;;;;;;;18.42;43.39;98853.84;5132523;28;19923;-43
2023/01/18 04:47:12;;;;;;;;;;;;;;;18.42;43.34;98864.88;5132482;28;19927;-43
2023/01/18 04:49:37;;;;;;;;;;;;;;;18.42;43.43;98870.38;5132035;27;20517;-43
2023/01/18 04:52:05;;;;;;;;;;;;;;;18.42;43.40;98866.81;5132126;28;19927;-43
2023/01/18 04:54:31;;;;;;;;;;;;;;;18.42;43.24;98873.16;5131392;28;19923;-44
2023/01/18 04:56:56;;;;;;;;;;;;;;;18.42;43.38;98869.59;5132261;28;19923;-44
2023/01/18 04:59:22;;;;;;;;;;;;;;;18.41;43.21;98871.53;5142718;27;19927;-45
2023/01/18 05:01:48;;;;;;;;;;;;;;;18.42;43.47;98872.34;5131881;27;19931;-43
2023/01/18 05:04:13;;;;;;;;;;;;;;;18.41;43.33;98882.56;5131923;28;19927;-45
2023/01/18 05:06:39;;;;;;;;;;;;;;;18.41;43.39;98877.03;5132079;28;19946;-44
2023/01/18 05:09:04;;;;;;;;;;;;;;;18.41;43.19;98881.75;5143154;27;19934;-43
2023/01/18 05:11:30;;;;;;;;;;;;;;;18.41;43.17;98888.06;5137644;27;19924;-44
2023/01/18 05:13:56;;;;;;;;;;;;;;;18.40;43.22;98889.22;5131787;28;19923;-44
2023/01/18 05:16:21;;;;;;;;;;;;;;;18.41;43.32;98896.34;5131675;28;19927;-45
2023/01/18 05:18:47;;;;;;;;;;;;;;;18.41;43.13;98888.06;5113190;28;19923;-44
2023/01/18 05:21:13;;;;;;;;;;;;;;;18.40;43.16;98897.47;5113207;28;19982;-44
2023/01/18 05:23:39;;;;;;;;;;;;;;;18.41;43.35;98901.03;5112989;28;20441;-43
2023/01/18 05:26:12;;;;;;;;;;;;;;;18.40;43.41;98908.50;5131735;28;19927;-43
2023/01/18 05:28:37;;;;;;;;;;;;;;;18.40;43.18;98911.25;5130076;27;20379;-43
2023/01/18 05:31:03;;;;;;;;;;;;;;;18.40;43.40;98910.44;5137808;27;19984;-44
2023/01/18 05:33:29;;;;;;;;;;;;;;;18.40;43.36;98913.22;5131372;28;19927;-43
2023/01/18 05:35:54;;;;;;;;;;;;;;;18.40;43.40;98919.53;5131696;28;20318;-47
2023/01/18 05:38:21;;;;;;;;;;;;;;;18.40;43.18;98918.72;5131116;27;19923;-45
2023/01/18 05:40:47;;;;;;;;;;;;;;;18.39;43.33;98920.63;5131446;27;20042;-45
2023/01/18 05:43:12;;;;;;;;;;;;;;;18.40;43.33;98927.78;5113061;28;20268;-43
2023/01/18 05:45:38;;;;;;;;;;;;;;;18.40;43.37;98929.75;5131310;28;19933;-44
2023/01/18 05:48:03;;;;;;;;;;;;;;;18.40;43.18;98936.06;5112890;27;19930;-45
2023/01/18 05:50:29;;;;;;;;;;;;;;;18.41;43.21;98936.88;5131156;27;19938;-44
2023/01/18 05:52:56;;;;;;;;;;;;;;;18.41;43.24;98939.63;5130693;28;19931;-44
2023/01/18 05:55:22;;;;;;;;;;;;;;;18.40;43.36;98946.28;5112589;28;19923;-43
2023/01/18 05:57:48;;;;;;;;;;;;;;;18.40;43.33;98951.78;5112493;28;19932;-43
2023/01/18 06:00:14;;;;;;;;;;;;;;;18.39;43.25;98950.16;5144954;27;20417;-45
2023/01/18 06:02:39;;;;;;;;;;;;;;;18.39;43.29;98959.22;5140747;27;19923;-44
2023/01/18 06:05:05;;;;;;;;;;;;;;;18.39;43.15;98953.72;5143327;27;19963;-45
2023/01/18 06:07:31;;;;;;;;;;;;;;;18.39;43.36;98959.22;5147216;27;19929;-43
2023/01/18 06:09:56;;;;;;;;;;;;;;;18.39;43.26;98956.47;5145166;27;20311;-43
2023/01/18 06:12:22;;;;;;;;;;;;;;;18.39;43.32;98958.41;5143601;27;19934;-44
2023/01/18 06:14:47;;;;;;;;;;;;;;;18.40;43.09;98963.63;5150736;27;19934;-48
2023/01/18 06:17:13;;;;;;;;;;;;;;;18.39;43.33;98966.69;5148746;27;20351;-43
2023/01/18 06:19:38;;;;;;;;;;;;;;;18.39;43.10;98977.72;5150105;27;19927;-43
2023/01/18 06:22:04;;;;;;;;;;;;;;;18.39;43.09;98978.50;5147311;27;20350;-43
2023/01/18 06:24:29;;;;;;;;;;;;;;;18.38;43.29;98982.41;5149918;27;20293;-44
2023/01/18 06:26:56;;;;;;;;;;;;;;;18.38;43.11;98982.41;5146079;27;19930;-45
2023/01/18 06:29:21;;;;;;;;;;;;;;;18.39;43.16;98985.97;5145333;27;19966;-43
2023/01/18 06:31:47;;;;;;;;;;;;;;;18.39;43.07;98983.22;5149554;27;19941;-45
2023/01/18 06:34:13;;;;;;;;;;;;;;;18.39;43.11;98991.47;5142574;27;19923;-44
2023/01/18 06:36:38;;;;;;;;;;;;;;;18.39;43.33;98992.28;5150181;27;20222;-43
2023/01/18 06:39:04;;;;;;;;;;;;;;;18.39;43.28;98999.75;5137498;27;20697;-44
2023/01/18 06:41:29;;;;;;;;;;;;;;;18.39;43.15;99000.56;5135277;27;20320;-44
2023/01/18 06:43:55;;;;;;;;;;;;;;;18.38;43.13;99006.41;5132615;27;19927;-44
2023/01/18 06:46:21;;;;;;;;;;;;;;;18.38;43.24;99009.16;5119919;27;19928;-44
2023/01/18 06:48:46;;;;;;;;;;;;;;;18.39;43.21;99008.03;5141487;27;19923;-43
2023/01/18 06:51:12;;;;;;;;;;;;;;;18.38;43.10;99009.16;5117524;27;20018;-43
2023/01/18 06:53:38;;;;;;;;;;;;;;;18.38;43.27;99011.91;5134562;27;20063;-44
2023/01/18 06:56:03;;;;;;;;;;;;;;;18.38;43.08;99020.19;5133816;27;20010;-45
2023/01/18 06:58:31;;;;;;;;;;;;;;;18.38;43.29;99028.44;5130667;27;20429;-43
2023/01/18 07:00:57;;;;;;;;;;;;;;;18.38;43.16;99021.00;5134009;27;19927;-48
2023/01/18 07:03:23;;;;;;;;;;;;;;;18.38;43.12;99026.50;5112143;27;19923;-46
2023/01/18 07:05:49;;;;;;;;;;;;;;;18.38;42.98;99031.22;5136593;27;19931;-44
2023/01/18 07:08:14;;;;;;;;;;;;;;;18.37;43.28;99022.13;5133698;27;19924;-44
2023/01/18 07:10:40;;;;;;;;;;;;;;;18.37;43.37;99033.16;5119871;27;20433;-44
2023/01/18 07:13:06;;;;;;;;;;;;;;;18.37;43.09;99033.16;5142359;27;20511;-46
2023/01/18 07:15:31;;;;;;;;;;;;;;;18.37;43.08;99040.63;5141160;27;19979;-44
2023/01/18 07:17:57;;;;;;;;;;;;;;;18.37;43.04;99044.19;5144408;27;19931;-45
2023/01/18 07:20:22;;;;;;;;;;;;;;;18.37;43.05;99046.94;5137907;27;19923;-43
2023/01/18 07:22:50;;;;;;;;;;;;;;;18.38;43.25;99061.53;5138750;27;19927;-44
2023/01/18 07:25:17;;;;;;;;;;;;;;;18.37;43.04;99060.72;5140299;27;19931;-43
2023/01/18 07:27:43;;;;;;;;;;;;;;;18.37;43.02;99071.75;5138009;27;19930;-45
2023/01/18 07:30:11;;;;;;;;;;;;;;;18.36;43.02;99070.13;5130805;27;20278;-43
2023/01/18 07:32:37;;;;;;;;;;;;;;;18.38;43.22;99067.03;5125164;27;19923;-43
2023/01/18 07:35:04;;;;;;;;;;;;;;;18.31;41.66;99070.28;5122043;27;20408;-44
2023/01/18 07:37:29;;;;;;;;;;;;;;;18.35;42.28;99078.69;5142180;27;19971;-47
2023/01/18 07:39:55;;;;;;;;;;;;;;;18.36;42.67;99078.38;5123410;27;20018;-45
2023/01/18 07:42:20;;;;;;;;;;;;;;;18.36;42.54;99089.41;5149247;27;21298;-50
2023/01/18 07:44:46;;;;;;;;;;;;;;;18.37;42.70;99091.03;5152290;27;19931;-45
2023/01/18 07:47:11;;;;;;;;;;;;;;;18.38;42.58;99098.16;5147275;27;19927;-44
2023/01/18 07:49:37;;;;;;;;;;;;;;;18.38;42.65;99098.16;5111101;27;20398;-48
2023/01/18 07:55:39;;;;;;;;;;;;;;;18.40;42.82;99087.66;5127123;27;19934;-48
2023/01/18 07:58:05;;;;;;;;;;;;;;;18.40;42.88;99098.66;5127705;27;20358;-44
2023/01/18 08:00:30;;;;;;;;;;;;;;;18.41;42.89;99099.47;5129624;27;19927;-44
2023/01/18 08:02:56;;;;;;;;;;;;;;;18.41;42.67;99111.31;5125168;27;19927;-46
2023/01/18 08:05:26;;;;;;;;;;;;;;;18.41;42.66;99108.56;5126695;27;19971;-44
2023/01/18 08:07:52;;;;;;;;;;;;;;;18.42;42.56;99115.69;5123602;27;19990;-43
2023/01/18 08:10:18;;;;;;;;;;;;;;;18.42;42.61;99109.38;5127844;27;20208;-44
2023/01/18 08:12:44;;;;;;;;;;;;;;;18.43;42.74;99111.78;5137053;27;20363;-44
2023/01/18 08:15:10;;;;;;;;;;;;;;;18.43;42.81;99116.50;5119183;27;20388;-46
2023/01/18 08:17:36;;;;;;;;;;;;;;;18.43;42.73;99113.72;5132674;27;19974;-46
2023/01/18 08:20:04;;;;;;;;;;;;;;;18.44;42.63;99118.94;5135543;27;20006;-51
2023/01/18 08:22:30;;;;;;;;;;;;;;;18.44;42.74;99126.41;5134661;27;19972;-43
2023/01/18 08:24:55;;;;;;;;;;;;;;;18.23;39.19;99128.91;5144494;27;19968;-43
2023/01/18 08:27:21;;;;;;;;;;;;;;;18.36;41.61;99130.75;5136831;27;19927;-44
2023/01/18 08:29:47;;;;;;;;;;;;;;;18.41;41.77;99140.81;5139534;27;20242;-45
2023/01/18 08:32:12;;;;;;;;;;;;;;;18.43;41.90;99144.06;5139418;27;20294;-46
2023/01/18 08:34:38;;;;;;;;;;;;;;;18.42;41.74;99145.19;5123858;27;19932;-43
2023/01/18 08:37:03;;;;;;;;;;;;;;;18.43;41.16;99157.84;5141794;27;19927;-45
2023/01/18 08:39:29;;;;;;;;;;;;;;;18.43;42.25;99149.56;5135849;27;20432;-46
2023/01/18 08:41:54;;;;;;;;;;;;;;;18.44;41.26;99165.81;5137550;27;19923;-44
2023/01/18 08:44:20;;;;;;;;;;;;;;;18.45;42.10;99166.63;5135749;27;20321;-43
2023/01/18 08:46:46;;;;;;;;;;;;;;;18.45;42.01;99167.44;5136039;27;19927;-43
2023/01/18 08:49:11;;;;;;;;;;;;;;;18.45;42.19;99167.44;5143131;27;20389;-44
2023/01/18 08:51:37;;;;;;;;;;;;;;;18.47;42.04;99172.59;5140199;27;19924;-44
2023/01/18 08:54:05;;;;;;;;;;;;;;;18.46;42.11;99171.81;5144238;27;20017;-43
2023/01/18 08:56:30;;;;;;;;;;;;;;;18.46;42.15;99188.34;5119497;27;20473;-44
2023/01/18 08:58:56;;;;;;;;;;;;;;;18.46;38.89;99190.28;5136568;27;20363;-44
2023/01/18 09:01:22;;;;;;;;;;;;;;;18.46;37.75;99193.84;5130189;27;19931;-44
2023/01/18 09:03:49;;;;;;;;;;;;;;;18.46;38.40;99195.78;5140402;27;19954;-44
2023/01/18 09:06:15;;;;;;;;;;;;;;;18.47;39.77;99203.75;5139311;27;20395;-47
2023/01/18 09:08:41;;;;;;;;;;;;;;;18.47;41.11;99203.75;5110716;27;19997;-47
2023/01/18 09:11:07;;;;;;;;;;;;;;;18.48;39.74;99204.53;5109368;27;19927;-44
2023/01/18 09:13:33;;;;;;;;;;;;;;;18.47;40.76;99202.94;5111632;27;19979;-45
2023/01/18 09:15:59;;;;;;;;;;;;;;;18.28;38.46;99208.69;5132111;27;19931;-44
2023/01/18 09:18:25;;;;;;;;;;;;;;;18.39;38.78;99212.78;5128428;27;19931;-44
2023/01/18 09:20:53;;;;;;;;;;;;;;;18.44;38.69;99226.44;5118294;27;20001;-46
2023/01/18 09:23:19;;;;;;;;;;;;;;;18.38;38.45;99222.19;5137524;27;20338;-48
2023/01/18 09:25:44;;;;;;;;;;;;;;;18.43;39.14;99222.03;5116970;27;19923;-46
2023/01/18 09:28:11;;;;;;;;;;;;;;;18.46;39.41;99223.34;5134089;27;19924;-45
2023/01/18 09:30:37;;;;;;;;;;;;;;;18.46;40.49;99226.94;5112697;27;20272;-43
2023/01/18 09:33:03;;;;;;;;;;;;;;;18.47;38.45;99231.31;5128850;27;19949;-43
2023/01/18 09:35:28;;;;;;;;;;;;;;;18.48;38.70;99229.34;5110634;27;19990;-44
2023/01/18 09:37:54;;;;;;;;;;;;;;;18.29;37.22;99233.16;5130308;27;20073;-46
2023/01/18 09:40:21;;;;;;;;;;;;;;;18.40;37.08;99239.22;5136301;27;19927;-45
2023/01/18 09:42:47;;;;;;;;;;;;;;;18.44;37.00;99233.91;5140570;27;20323;-44
2023/01/18 09:45:25;;;;;;;;;;;;;;;18.45;37.99;99239.09;5139419;27;19935;-51
2023/01/18 09:47:53;;;;;;;;;;;;;;;18.47;38.36;99244.28;5129849;27;19970;-46
2023/01/18 09:50:18;;;;;;;;;;;;;;;18.47;39.57;99247.84;5130947;27;19966;-43
2023/01/18 09:53:04;;;;;;;;;;;;;;;18.50;38.42;99257.44;5134112;27;19931;-52
2023/01/18 09:55:50;;;;;;;;;;;;;;;18.50;39.01;99266.50;5117385;27;21570;-52
2023/01/18 09:58:36;;;;;;;;;;;;;;;18.49;39.70;99267.66;5120325;27;19979;-51
2023/01/18 10:01:04;;;;;;;;;;;;;;;18.51;41.28;99267.31;5119404;27;19934;-50
2023/01/18 10:03:43;;;;;;;;;;;;;;;18.51;41.21;99259.84;5117632;27;20016;-51
2023/01/18 10:06:14;;;;;;;;;;;;;;;18.51;41.24;99264.56;5135499;27;19934;-51
2023/01/18 10:08:59;;;;;;;;;;;;;;;18.52;41.18;99271.69;5119959;27;19968;-47
2023/01/18 10:11:28;;;;;;;;;;;;;;;18.53;41.34;99265.06;5125599;27;19934;-51
2023/01/18 10:14:14;;;;;;;;;;;;;;;18.52;41.59;99274.44;5135092;27;19927;-51
2023/01/18 10:16:39;;;;;;;;;;;;;;;18.53;41.67;99276.91;5122127;27;19923;-52
2023/01/18 10:19:13;;;;;;;;;;;;;;;18.53;41.21;99276.91;5142319;27;20497;-52
2023/01/18 10:21:46;;;;;;;;;;;;;;;18.53;41.50;99276.09;5118030;27;19923;-48
2023/01/18 10:24:31;;;;;;;;;;;;;;;18.53;41.58;99287.13;5135445;27;19950;-52
2023/01/18 10:27:09;;;;;;;;;;;;;;;18.53;41.53;99282.44;5117904;27;20494;-51
2023/01/18 10:29:40;;;;;;;;;;;;;;;18.53;41.54;99285.19;5130581;27;19969;-49
2023/01/18 10:32:09;;;;;;;;;;;;;;;18.53;41.56;99287.94;5137548;27;20018;-51
2023/01/18 10:34:37;;;;;;;;;;;;;;;18.54;41.63;99286.00;5121655;27;20345;-51
2023/01/18 10:37:13;;;;;;;;;;;;;;;18.54;41.66;99286.00;5131914;27;19931;-48
2023/01/18 10:39:40;;;;;;;;;;;;;;;18.54;41.68;99289.56;5127082;27;20004;-51
2023/01/18 10:42:21;;;;;;;;;;;;;;;18.54;40.67;99286.00;5129898;27;20314;-50
2023/01/18 10:44:47;;;;;;;;;;;;;;;18.55;41.85;99290.38;5133976;27;19927;-52
2023/01/18 10:47:15;;;;;;;;;;;;;;;18.55;40.62;99293.13;5126752;27;20496;-51
2023/01/18 10:49:44;;;;;;;;;;;;;;;18.54;41.95;99292.31;5131361;27;20016;-47
2023/01/18 10:52:29;;;;;;;;;;;;;;;18.55;41.77;99302.22;5132986;27;20037;-51
2023/01/18 10:54:57;;;;;;;;;;;;;;;18.55;41.81;99298.66;5116385;27;20015;-50
2023/01/18 10:57:25;;;;;;;;;;;;;;;18.55;41.79;99295.88;5098508;27;19963;-52
2023/01/18 10:59:51;;;;;;;;;;;;;;;18.55;41.87;99296.69;5118140;27;20085;-51
2023/01/18 11:02:19;;;;;;;;;;;;;;;18.55;41.72;99298.66;5122178;27;19924;-52
2023/01/18 11:04:45;;;;;;;;;;;;;;;18.54;41.69;99302.53;5131470;27;19939;-48
2023/01/18 11:07:10;;;;;;;;;;;;;;;18.55;41.75;99315.19;5135078;27;19923;-51
2023/01/18 11:12:53;;;;;;;;;;;;;;;18.54;42.10;99308.84;5148733;27;19933;-48
2023/01/18 11:17:55;;;;;;;;;;;;;;;18.52;41.84;99322.16;5152329;27;19933;-51
2023/01/18 11:20:22;;;;;;;;;;;;;;;18.53;42.02;99320.22;5125621;27;20071;-51
2023/01/18 11:22:55;;;;;;;;;;;;;;;18.53;41.89;99314.69;5119879;27;19968;-50
2023/01/18 11:25:20;;;;;;;;;;;;;;;18.52;41.74;99313.88;5119118;27;19927;-50
2023/01/18 11:27:46;;;;;;;;;;;;;;;18.52;42.12;99313.88;5132378;27;19923;-51
2023/01/18 11:30:20;;;;;;;;;;;;;;;18.53;41.95;99320.22;5117433;27;20375;-50
2023/01/18 11:32:45;;;;;;;;;;;;;;;18.53;41.81;99317.47;5113828;27;20824;-51
2023/01/18 11:35:19;;;;;;;;;;;;;;;18.52;42.20;99310.28;5120818;27;19928;-51
2023/01/18 11:37:44;;;;;;;;;;;;;;;18.52;42.01;99313.88;5111623;27;19970;-51
2023/01/18 11:40:21;;;;;;;;;;;;;;;18.52;42.05;99316.66;5128313;27;19946;-49
2023/01/18 11:42:47;;;;;;;;;;;;;;;18.54;41.66;99311.63;5123993;27;19950;-51
2023/01/18 11:45:34;;;;;;;;;;;;;;;18.55;41.69;99321.50;5128178;27;20429;-46
2023/01/18 11:48:03;;;;;;;;;;;;;;;18.54;41.85;99308.84;5108644;27;19980;-43
2023/01/18 11:50:32;;;;;;;;;;;;;;;18.54;41.93;99310.81;5106500;27;19932;-45
2023/01/18 11:53:18;;;;;;;;;;;;;;;18.53;41.94;99314.69;5121031;27;20472;-46
2023/01/18 11:55:46;;;;;;;;;;;;;;;18.53;41.91;99311.94;5127638;27;20255;-48
2023/01/18 11:58:22;;;;;;;;;;;;;;;18.54;41.82;99310.81;5125569;27;19962;-45
2023/01/18 12:00:54;;;;;;;;;;;;;;;18.54;41.82;99319.88;5120261;27;19997;-48
2023/01/18 12:03:24;;;;;;;;;;;;;;;18.54;42.12;99311.63;5121410;27;20690;-46
2023/01/18 12:05:53;;;;;;;;;;;;;;;18.55;42.05;99304.97;5129600;27;19935;-46
2023/01/18 12:08:39;;;;;;;;;;;;;;;18.54;41.92;99306.09;5130044;27;19980;-47
2023/01/18 12:11:16;;;;;;;;;;;;;;;18.55;42.16;99313.25;5120917;27;19934;-47
2023/01/18 12:13:46;;;;;;;;;;;;;;;18.56;41.90;99314.06;5132058;27;19962;-48
2023/01/18 12:16:15;;;;;;;;;;;;;;;18.56;42.11;99316.81;5136594;27;19967;-46
2023/01/18 12:19:01;;;;;;;;;;;;;;;18.56;41.92;99314.84;5131910;27;19934;-46
2023/01/18 12:21:46;;;;;;;;;;;;;;;18.57;42.20;99321.22;5122534;27;19923;-47
2023/01/18 12:24:30;;;;;;;;;;;;;;;18.57;41.91;99318.47;5125433;27;20015;-46
2023/01/18 12:26:57;;;;;;;;;;;;;;;18.56;42.03;99323.13;5125486;27;20616;-46
2023/01/18 12:29:42;;;;;;;;;;;;;;;18.56;42.12;99323.13;5110439;28;20383;-46
2023/01/18 12:32:10;;;;;;;;;;;;;;;18.58;42.08;99319.25;5104663;28;19967;-48
2023/01/18 12:34:40;;;;;;;;;;;;;;;18.59;42.19;99321.69;5114634;28;19928;-47
2023/01/18 12:37:12;;;;;;;;;;;;;;;18.61;42.00;99321.38;5107723;27;19943;-49
2023/01/18 12:39:57;;;;;;;;;;;;;;;18.62;41.98;99323.03;5111787;27;20364;-46
2023/01/18 12:42:43;;;;;;;;;;;;;;;18.61;42.00;99327.72;5112864;28;19934;-47
2023/01/18 12:48:19;;;;;;;;;;;;;;;18.62;41.89;99329.34;5150805;27;19975;-44
2023/01/18 12:50:46;;;;;;;;;;;;;;;18.61;42.23;99327.72;5147592;27;20298;-44
2023/01/18 12:53:13;;;;;;;;;;;;;;;18.62;41.94;99332.09;5155495;27;19973;-45
2023/01/18 12:55:40;;;;;;;;;;;;;;;18.61;42.05;99330.47;5138470;27;20227;-45
2023/01/18 12:58:06;;;;;;;;;;;;;;;18.63;41.95;99330.97;5139140;27;19982;-43
2023/01/18 13:00:39;;;;;;;;;;;;;;;18.62;42.15;99332.09;5134601;27;19942;-43
2023/01/18 13:03:08;;;;;;;;;;;;;;;18.68;41.77;99338.28;5110939;27;19985;-53
2023/01/18 13:05:36;;;;;;;;;;;;;;;18.68;42.27;99332.78;5139714;27;20358;-44
2023/01/18 13:08:05;;;;;;;;;;;;;;;18.67;42.26;99336.66;5142347;27;19959;-45
2023/01/18 13:10:30;;;;;;;;;;;;;;;18.66;42.05;99344.13;5140089;27;20048;-45
2023/01/18 13:12:56;;;;;;;;;;;;;;;18.65;42.00;99345.28;5140252;27;19963;-44
2023/01/18 13:15:42;;;;;;;;;;;;;;;18.65;42.19;99337.00;5139366;27;19923;-44
2023/01/18 13:18:20;;;;;;;;;;;;;;;18.65;42.27;99341.66;5128642;27;19924;-45
2023/01/18 13:21:05;;;;;;;;;;;;;;;18.65;42.06;99337.00;5121630;27;19930;-44
2023/01/18 13:26:16;;;;;;;;;;;;;;;18.69;41.98;99332.47;5173875;27;19929;-48
2023/01/18 13:28:42;;;;;;;;;;;;;;;18.68;42.30;99330.03;5153297;27;19958;-43
2023/01/18 13:31:08;;;;;;;;;;;;;;;18.68;42.01;99330.81;5148038;27;20066;-44
2023/01/18 13:33:35;;;;;;;;;;;;;;;18.67;42.18;99329.22;5156738;27;19927;-45
2023/01/18 13:36:02;;;;;;;;;;;;;;;18.67;42.04;99334.72;5155203;27;19935;-45
2023/01/18 13:38:29;;;;;;;;;;;;;;;18.66;42.11;99333.09;5151894;27;19966;-44
2023/01/18 13:41:07;;;;;;;;;;;;;;;18.67;42.38;99343.00;5156028;27;19975;-47